sensor_id;sensor_type;location;lat;lon;timestamp;temperature;humidity
3348;DHT22;1687;49.540;8.574;2024-02-15T00:02:15;13.30;99.90
3348;DHT22;1687;49.540;8.574;2024-02-15T00:04:41;13.30;99.90
3348;DHT22;1687;49.540;8.574;2024-02-15T00:07:07;13.30;99.90
3348;DHT22;1687;49.540;8.574;2024-02-15T00:09:33;13.30;99.90
3348;DHT22;1687;49.540;8.574;2024-02-15T00:11:59;13.20;99.90
3348;DHT22;1687;49.540;8.574;2024-02-15T00:14:26;13.20;99.90
3348;DHT22;1687;49.540;8.574;2024-02-15T00:16:53;13.10;99.90
3348;DHT22;1687;49.540;8.574;2024-02-15T00:19:18;13.20;99.90
3348;DHT22;1687;49.540;8.574;2024-02-15T00:21:44;13.20;99.90
3348;DHT22;1687;49.540;8.574;2024-02-15T00:24:10;13.20;99.90
3348;DHT22;1687;49.540;8.574;2024-02-15T00:26:36;13.20;99.90
3348;DHT22;1687;49.540;8.574;2024-02-15T00:29:02;13.10;99.90
3348;DHT22;1687;49.540;8.574;2024-02-15T00:31:27;13.00;99.90
3348;DHT22;1687;49.540;8.574;2024-02-15T00:33:53;13.00;99.90
3348;DHT22;1687;49.540;8.574;2024-02-15T00:36:20;13.00;99.90
3348;DHT22;1687;49.540;8.574;2024-02-15T00:38:45;12.90;99.90
3348;DHT22;1687;49.540;8.574;2024-02-15T00:41:11;12.90;99.90
3348;DHT22;1687;49.540;8.574;2024-02-15T00:43:38;12.80;99.90
3348;DHT22;1687;49.540;8.574;2024-02-15T00:46:03;12.80;99.90
3348;DHT22;1687;49.540;8.574;2024-02-15T00:48:29;12.80;99.90
3348;DHT22;1687;49.540;8.574;2024-02-15T00:50:55;12.80;99.90
3348;DHT22;1687;49.540;8.574;2024-02-15T00:53:22;12.80;99.90
3348;DHT22;1687;49.540;8.574;2024-02-15T00:55:47;12.80;99.90
3348;DHT22;1687;49.540;8.574;2024-02-15T00:58:13;12.70;99.90
3348;DHT22;1687;49.540;8.574;2024-02-15T01:00:39;12.70;99.90
3348;DHT22;1687;49.540;8.574;2024-02-15T01:03:04;12.70;99.90
3348;DHT22;1687;49.540;8.574;2024-02-15T01:05:30;12.70;99.90
3348;DHT22;1687;49.540;8.574;2024-02-15T01:07:56;12.70;99.90
3348;DHT22;1687;49.540;8.574;2024-02-15T01:10:22;12.70;99.90
3348;DHT22;1687;49.540;8.574;2024-02-15T01:12:50;12.70;99.90
3348;DHT22;1687;49.540;8.574;2024-02-15T01:15:15;12.70;99.90
3348;DHT22;1687;49.540;8.574;2024-02-15T01:17:45;12.70;99.90
3348;DHT22;1687;49.540;8.574;2024-02-15T01:20:11;12.80;99.90
3348;DHT22;1687;49.540;8.574;2024-02-15T01:22:37;12.80;99.90
3348;DHT22;1687;49.540;8.574;2024-02-15T01:25:03;12.80;99.90
3348;DHT22;1687;49.540;8.574;2024-02-15T01:27:29;12.80;99.90
3348;DHT22;1687;49.540;8.574;2024-02-15T01:29:56;12.90;99.90
3348;DHT22;1687;49.540;8.574;2024-02-15T01:32:22;12.90;99.90
3348;DHT22;1687;49.540;8.574;2024-02-15T01:34:47;12.90;99.90
3348;DHT22;1687;49.540;8.574;2024-02-15T01:37:13;13.00;99.90
3348;DHT22;1687;49.540;8.574;2024-02-15T01:39:39;13.00;99.90
3348;DHT22;1687;49.540;8.574;2024-02-15T01:42:05;13.00;99.90
3348;DHT22;1687;49.540;8.574;2024-02-15T01:44:31;13.00;99.90
3348;DHT22;1687;49.540;8.574;2024-02-15T01:46:57;13.00;99.90
3348;DHT22;1687;49.540;8.574;2024-02-15T01:49:27;13.00;99.90
3348;DHT22;1687;49.540;8.574;2024-02-15T01:51:56;13.00;99.90
3348;DHT22;1687;49.540;8.574;2024-02-15T01:54:22;13.00;99.90
3348;DHT22;1687;49.540;8.574;2024-02-15T01:56:49;13.00;99.90
3348;DHT22;1687;49.540;8.574;2024-02-15T01:59:15;13.00;99.90
3348;DHT22;1687;49.540;8.574;2024-02-15T02:01:42;13.00;99.90
3348;DHT22;1687;49.540;8.574;2024-02-15T02:04:09;13.00;99.90
3348;DHT22;1687;49.540;8.574;2024-02-15T02:06:36;13.10;99.90
3348;DHT22;1687;49.540;8.574;2024-02-15T02:09:03;13.10;99.90
3348;DHT22;1687;49.540;8.574;2024-02-15T02:11:28;13.20;99.90
3348;DHT22;1687;49.540;8.574;2024-02-15T02:13:55;13.20;99.90
3348;DHT22;1687;49.540;8.574;2024-02-15T02:16:28;13.20;99.90
3348;DHT22;1687;49.540;8.574;2024-02-15T02:18:58;13.20;99.90
3348;DHT22;1687;49.540;8.574;2024-02-15T02:21:26;13.20;99.90
3348;DHT22;1687;49.540;8.574;2024-02-15T02:23:53;13.20;99.90
3348;DHT22;1687;49.540;8.574;2024-02-15T02:26:21;13.20;99.90
3348;DHT22;1687;49.540;8.574;2024-02-15T02:28:48;13.20;99.90
3348;DHT22;1687;49.540;8.574;2024-02-15T02:31:14;13.20;99.90
3348;DHT22;1687;49.540;8.574;2024-02-15T02:33:41;13.20;99.90
3348;DHT22;1687;49.540;8.574;2024-02-15T02:36:08;13.20;99.90
3348;DHT22;1687;49.540;8.574;2024-02-15T02:38:36;13.20;99.90
3348;DHT22;1687;49.540;8.574;2024-02-15T02:41:04;13.20;99.90
3348;DHT22;1687;49.540;8.574;2024-02-15T02:43:30;13.20;99.90
3348;DHT22;1687;49.540;8.574;2024-02-15T02:45:55;13.20;99.90
3348;DHT22;1687;49.540;8.574;2024-02-15T02:48:21;13.20;99.90
3348;DHT22;1687;49.540;8.574;2024-02-15T02:50:48;13.20;99.90
3348;DHT22;1687;49.540;8.574;2024-02-15T02:53:14;13.20;99.90
3348;DHT22;1687;49.540;8.574;2024-02-15T02:55:41;13.20;99.90
3348;DHT22;1687;49.540;8.574;2024-02-15T02:58:07;13.20;99.90
3348;DHT22;1687;49.540;8.574;2024-02-15T03:00:33;13.20;99.90
3348;DHT22;1687;49.540;8.574;2024-02-15T03:02:59;13.20;99.90
3348;DHT22;1687;49.540;8.574;2024-02-15T03:05:26;13.20;99.90
3348;DHT22;1687;49.540;8.574;2024-02-15T03:07:52;13.20;99.90
3348;DHT22;1687;49.540;8.574;2024-02-15T03:10:18;13.20;99.90
3348;DHT22;1687;49.540;8.574;2024-02-15T03:12:44;13.20;99.90
3348;DHT22;1687;49.540;8.574;2024-02-15T03:15:13;13.20;99.90
3348;DHT22;1687;49.540;8.574;2024-02-15T03:17:40;13.20;99.90
3348;DHT22;1687;49.540;8.574;2024-02-15T03:20:07;13.20;99.90
3348;DHT22;1687;49.540;8.574;2024-02-15T03:22:38;13.30;99.90
3348;DHT22;1687;49.540;8.574;2024-02-15T03:25:07;13.30;99.90
3348;DHT22;1687;49.540;8.574;2024-02-15T03:27:36;13.20;99.90
3348;DHT22;1687;49.540;8.574;2024-02-15T03:30:06;13.20;99.90
3348;DHT22;1687;49.540;8.574;2024-02-15T03:32:31;13.10;99.90
3348;DHT22;1687;49.540;8.574;2024-02-15T03:34:58;13.10;99.90
3348;DHT22;1687;49.540;8.574;2024-02-15T03:37:26;13.10;99.90
3348;DHT22;1687;49.540;8.574;2024-02-15T03:39:52;13.10;99.90
3348;DHT22;1687;49.540;8.574;2024-02-15T03:42:18;13.10;99.90
3348;DHT22;1687;49.540;8.574;2024-02-15T03:44:43;13.10;99.90
3348;DHT22;1687;49.540;8.574;2024-02-15T03:47:09;13.20;99.90
3348;DHT22;1687;49.540;8.574;2024-02-15T03:49:35;13.10;99.90
3348;DHT22;1687;49.540;8.574;2024-02-15T03:52:00;13.10;99.90
3348;DHT22;1687;49.540;8.574;2024-02-15T03:54:26;13.10;99.90
3348;DHT22;1687;49.540;8.574;2024-02-15T03:56:52;13.00;99.90
3348;DHT22;1687;49.540;8.574;2024-02-15T03:59:21;13.00;99.90
3348;DHT22;1687;49.540;8.574;2024-02-15T04:01:54;13.00;99.90
3348;DHT22;1687;49.540;8.574;2024-02-15T04:04:21;13.00;99.90
3348;DHT22;1687;49.540;8.574;2024-02-15T04:06:48;12.90;99.90
3348;DHT22;1687;49.540;8.574;2024-02-15T04:09:17;13.00;99.90
3348;DHT22;1687;49.540;8.574;2024-02-15T04:11:52;12.90;99.90
3348;DHT22;1687;49.540;8.574;2024-02-15T04:14:22;13.00;99.90
3348;DHT22;1687;49.540;8.574;2024-02-15T04:16:48;12.90;99.90
3348;DHT22;1687;49.540;8.574;2024-02-15T04:19:14;13.00;99.90
3348;DHT22;1687;49.540;8.574;2024-02-15T04:21:40;13.00;99.90
3348;DHT22;1687;49.540;8.574;2024-02-15T04:24:09;12.90;99.90
3348;DHT22;1687;49.540;8.574;2024-02-15T04:26:34;13.00;99.90
3348;DHT22;1687;49.540;8.574;2024-02-15T04:29:02;13.00;99.90
3348;DHT22;1687;49.540;8.574;2024-02-15T04:31:28;13.00;99.90
3348;DHT22;1687;49.540;8.574;2024-02-15T04:33:54;13.00;99.90
3348;DHT22;1687;49.540;8.574;2024-02-15T04:36:21;13.00;99.90
3348;DHT22;1687;49.540;8.574;2024-02-15T04:38:51;13.00;99.90
3348;DHT22;1687;49.540;8.574;2024-02-15T04:41:17;13.10;99.90
3348;DHT22;1687;49.540;8.574;2024-02-15T04:43:46;13.10;99.90
3348;DHT22;1687;49.540;8.574;2024-02-15T04:46:12;13.20;99.90
3348;DHT22;1687;49.540;8.574;2024-02-15T04:48:40;13.10;99.90
3348;DHT22;1687;49.540;8.574;2024-02-15T04:51:09;13.20;99.90
3348;DHT22;1687;49.540;8.574;2024-02-15T04:53:36;13.20;99.90
3348;DHT22;1687;49.540;8.574;2024-02-15T04:56:04;13.10;99.90
3348;DHT22;1687;49.540;8.574;2024-02-15T04:58:37;13.10;99.90
3348;DHT22;1687;49.540;8.574;2024-02-15T05:01:03;13.10;99.90
3348;DHT22;1687;49.540;8.574;2024-02-15T05:03:31;13.10;99.90
3348;DHT22;1687;49.540;8.574;2024-02-15T05:06:00;13.20;99.90
3348;DHT22;1687;49.540;8.574;2024-02-15T05:08:26;13.10;99.90
3348;DHT22;1687;49.540;8.574;2024-02-15T05:10:53;13.10;99.90
3348;DHT22;1687;49.540;8.574;2024-02-15T05:13:24;13.10;99.90
3348;DHT22;1687;49.540;8.574;2024-02-15T05:15:50;13.10;99.90
3348;DHT22;1687;49.540;8.574;2024-02-15T05:18:16;13.10;99.90
3348;DHT22;1687;49.540;8.574;2024-02-15T05:20:42;13.00;99.90
3348;DHT22;1687;49.540;8.574;2024-02-15T05:23:08;13.00;99.90
3348;DHT22;1687;49.540;8.574;2024-02-15T05:25:34;13.00;99.90
3348;DHT22;1687;49.540;8.574;2024-02-15T05:28:01;13.00;99.90
3348;DHT22;1687;49.540;8.574;2024-02-15T05:30:27;13.00;99.90
3348;DHT22;1687;49.540;8.574;2024-02-15T05:32:53;13.00;99.90
3348;DHT22;1687;49.540;8.574;2024-02-15T05:35:18;13.00;99.90
3348;DHT22;1687;49.540;8.574;2024-02-15T05:37:44;13.00;99.90
3348;DHT22;1687;49.540;8.574;2024-02-15T05:40:11;13.00;99.90
3348;DHT22;1687;49.540;8.574;2024-02-15T05:42:43;13.00;99.90
3348;DHT22;1687;49.540;8.574;2024-02-15T05:47:55;12.90;99.90
3348;DHT22;1687;49.540;8.574;2024-02-15T05:50:21;12.90;99.90
3348;DHT22;1687;49.540;8.574;2024-02-15T05:52:47;12.90;99.90
3348;DHT22;1687;49.540;8.574;2024-02-15T05:55:13;12.80;99.90
3348;DHT22;1687;49.540;8.574;2024-02-15T05:57:43;12.80;99.90
3348;DHT22;1687;49.540;8.574;2024-02-15T06:00:10;12.80;99.90
3348;DHT22;1687;49.540;8.574;2024-02-15T06:02:36;12.80;99.90
3348;DHT22;1687;49.540;8.574;2024-02-15T06:05:01;12.80;99.90
3348;DHT22;1687;49.540;8.574;2024-02-15T06:07:32;12.90;99.90
3348;DHT22;1687;49.540;8.574;2024-02-15T06:09:59;12.80;99.90
3348;DHT22;1687;49.540;8.574;2024-02-15T06:12:28;12.90;99.90
3348;DHT22;1687;49.540;8.574;2024-02-15T06:14:55;12.90;99.90
3348;DHT22;1687;49.540;8.574;2024-02-15T06:17:20;12.90;99.90
3348;DHT22;1687;49.540;8.574;2024-02-15T06:19:46;12.80;99.90
3348;DHT22;1687;49.540;8.574;2024-02-15T06:22:12;12.80;99.90
3348;DHT22;1687;49.540;8.574;2024-02-15T06:24:38;12.80;99.90
3348;DHT22;1687;49.540;8.574;2024-02-15T06:27:05;12.80;99.90
3348;DHT22;1687;49.540;8.574;2024-02-15T06:29:31;12.80;99.90
3348;DHT22;1687;49.540;8.574;2024-02-15T06:32:15;12.80;99.90
3348;DHT22;1687;49.540;8.574;2024-02-15T06:35:00;12.70;99.90
3348;DHT22;1687;49.540;8.574;2024-02-15T06:37:44;12.70;99.90
3348;DHT22;1687;49.540;8.574;2024-02-15T06:40:28;12.70;99.90
3348;DHT22;1687;49.540;8.574;2024-02-15T06:42:54;12.80;99.90
3348;DHT22;1687;49.540;8.574;2024-02-15T06:45:20;12.80;99.90
3348;DHT22;1687;49.540;8.574;2024-02-15T06:47:46;12.80;99.90
3348;DHT22;1687;49.540;8.574;2024-02-15T06:50:13;12.80;99.90
3348;DHT22;1687;49.540;8.574;2024-02-15T06:52:39;12.80;99.90
3348;DHT22;1687;49.540;8.574;2024-02-15T06:55:07;12.80;99.90
3348;DHT22;1687;49.540;8.574;2024-02-15T06:57:34;12.90;99.90
3348;DHT22;1687;49.540;8.574;2024-02-15T07:00:04;12.90;99.90
3348;DHT22;1687;49.540;8.574;2024-02-15T07:02:34;12.90;99.90
3348;DHT22;1687;49.540;8.574;2024-02-15T07:05:00;12.90;99.90
3348;DHT22;1687;49.540;8.574;2024-02-15T07:07:27;12.90;99.90
3348;DHT22;1687;49.540;8.574;2024-02-15T07:09:53;12.90;99.90
3348;DHT22;1687;49.540;8.574;2024-02-15T07:12:19;12.80;99.90
3348;DHT22;1687;49.540;8.574;2024-02-15T07:14:46;12.90;99.90
3348;DHT22;1687;49.540;8.574;2024-02-15T07:17:12;12.90;99.90
3348;DHT22;1687;49.540;8.574;2024-02-15T07:19:43;13.00;99.90
3348;DHT22;1687;49.540;8.574;2024-02-15T07:22:10;13.00;99.90
3348;DHT22;1687;49.540;8.574;2024-02-15T07:24:36;13.00;99.90
3348;DHT22;1687;49.540;8.574;2024-02-15T07:27:04;13.00;99.90
3348;DHT22;1687;49.540;8.574;2024-02-15T07:29:30;13.00;99.90
3348;DHT22;1687;49.540;8.574;2024-02-15T07:31:58;13.00;99.90
3348;DHT22;1687;49.540;8.574;2024-02-15T07:34:27;13.10;99.90
3348;DHT22;1687;49.540;8.574;2024-02-15T07:36:53;13.10;99.90
3348;DHT22;1687;49.540;8.574;2024-02-15T07:39:19;13.10;99.90
3348;DHT22;1687;49.540;8.574;2024-02-15T07:41:50;13.10;99.90
3348;DHT22;1687;49.540;8.574;2024-02-15T07:44:16;13.10;99.90
3348;DHT22;1687;49.540;8.574;2024-02-15T07:46:43;13.20;99.90
3348;DHT22;1687;49.540;8.574;2024-02-15T07:49:09;13.20;99.90
3348;DHT22;1687;49.540;8.574;2024-02-15T07:51:34;13.30;99.90
3348;DHT22;1687;49.540;8.574;2024-02-15T07:54:01;13.30;99.90
3348;DHT22;1687;49.540;8.574;2024-02-15T07:56:27;13.30;99.90
3348;DHT22;1687;49.540;8.574;2024-02-15T07:58:52;13.30;99.90
3348;DHT22;1687;49.540;8.574;2024-02-15T08:01:19;13.30;99.90
3348;DHT22;1687;49.540;8.574;2024-02-15T08:03:48;13.30;99.90
3348;DHT22;1687;49.540;8.574;2024-02-15T08:06:15;13.30;99.90
3348;DHT22;1687;49.540;8.574;2024-02-15T08:08:42;13.30;99.90
3348;DHT22;1687;49.540;8.574;2024-02-15T08:11:13;13.30;99.90
3348;DHT22;1687;49.540;8.574;2024-02-15T08:13:46;13.30;99.90
3348;DHT22;1687;49.540;8.574;2024-02-15T08:16:15;13.30;99.90
3348;DHT22;1687;49.540;8.574;2024-02-15T08:18:42;13.20;99.90
3348;DHT22;1687;49.540;8.574;2024-02-15T08:21:09;13.30;99.90
3348;DHT22;1687;49.540;8.574;2024-02-15T08:23:36;13.40;99.90
3348;DHT22;1687;49.540;8.574;2024-02-15T08:26:01;13.40;99.90
3348;DHT22;1687;49.540;8.574;2024-02-15T08:28:27;13.50;99.90
3348;DHT22;1687;49.540;8.574;2024-02-15T08:30:56;13.60;99.90
3348;DHT22;1687;49.540;8.574;2024-02-15T08:33:25;13.70;99.90
3348;DHT22;1687;49.540;8.574;2024-02-15T08:35:54;13.70;99.90
3348;DHT22;1687;49.540;8.574;2024-02-15T08:38:21;13.80;99.90
3348;DHT22;1687;49.540;8.574;2024-02-15T08:40:47;13.80;99.90
3348;DHT22;1687;49.540;8.574;2024-02-15T08:43:13;13.80;99.90
3348;DHT22;1687;49.540;8.574;2024-02-15T08:45:41;13.90;99.90
3348;DHT22;1687;49.540;8.574;2024-02-15T08:48:07;13.90;99.90
3348;DHT22;1687;49.540;8.574;2024-02-15T08:50:33;13.80;99.90
3348;DHT22;1687;49.540;8.574;2024-02-15T08:52:59;13.70;99.90
3348;DHT22;1687;49.540;8.574;2024-02-15T08:55:24;13.80;99.90
3348;DHT22;1687;49.540;8.574;2024-02-15T08:57:53;14.00;99.90
3348;DHT22;1687;49.540;8.574;2024-02-15T09:00:20;14.20;99.90
3348;DHT22;1687;49.540;8.574;2024-02-15T09:02:46;14.30;99.90
3348;DHT22;1687;49.540;8.574;2024-02-15T09:05:13;14.40;99.90
3348;DHT22;1687;49.540;8.574;2024-02-15T09:07:42;14.40;99.90
3348;DHT22;1687;49.540;8.574;2024-02-15T09:10:09;14.50;99.90
3348;DHT22;1687;49.540;8.574;2024-02-15T09:12:45;14.60;99.90
3348;DHT22;1687;49.540;8.574;2024-02-15T09:15:14;14.70;99.90
3348;DHT22;1687;49.540;8.574;2024-02-15T09:17:41;14.70;99.90
3348;DHT22;1687;49.540;8.574;2024-02-15T09:20:12;14.70;99.90
3348;DHT22;1687;49.540;8.574;2024-02-15T09:22:48;14.70;99.90
3348;DHT22;1687;49.540;8.574;2024-02-15T09:25:16;14.70;99.90
3348;DHT22;1687;49.540;8.574;2024-02-15T09:27:42;14.90;99.90
3348;DHT22;1687;49.540;8.574;2024-02-15T09:30:09;15.00;99.90
3348;DHT22;1687;49.540;8.574;2024-02-15T09:32:39;15.10;99.90
3348;DHT22;1687;49.540;8.574;2024-02-15T09:35:06;15.10;99.90
3348;DHT22;1687;49.540;8.574;2024-02-15T09:37:34;15.20;99.90
3348;DHT22;1687;49.540;8.574;2024-02-15T09:40:00;15.10;99.70
3348;DHT22;1687;49.540;8.574;2024-02-15T09:42:31;15.10;99.90
3348;DHT22;1687;49.540;8.574;2024-02-15T09:45:00;15.30;99.50
3348;DHT22;1687;49.540;8.574;2024-02-15T09:47:36;15.20;99.60
3348;DHT22;1687;49.540;8.574;2024-02-15T09:50:09;15.40;99.70
3348;DHT22;1687;49.540;8.574;2024-02-15T09:52:38;15.60;99.90
3348;DHT22;1687;49.540;8.574;2024-02-15T09:55:07;15.70;99.10
3348;DHT22;1687;49.540;8.574;2024-02-15T09:57:38;15.70;99.40
3348;DHT22;1687;49.540;8.574;2024-02-15T10:00:07;15.90;99.40
3348;DHT22;1687;49.540;8.574;2024-02-15T10:02:35;16.10;99.00
3348;DHT22;1687;49.540;8.574;2024-02-15T10:05:02;16.00;98.10
3348;DHT22;1687;49.540;8.574;2024-02-15T10:07:28;16.00;97.90
3348;DHT22;1687;49.540;8.574;2024-02-15T10:09:54;16.00;97.70
3348;DHT22;1687;49.540;8.574;2024-02-15T10:12:19;16.10;98.00
3348;DHT22;1687;49.540;8.574;2024-02-15T10:14:49;16.30;98.00
3348;DHT22;1687;49.540;8.574;2024-02-15T10:17:19;16.50;97.80
3348;DHT22;1687;49.540;8.574;2024-02-15T10:19:48;16.60;96.30
3348;DHT22;1687;49.540;8.574;2024-02-15T10:22:28;16.40;95.80
3348;DHT22;1687;49.540;8.574;2024-02-15T10:25:13;16.50;96.30
3348;DHT22;1687;49.540;8.574;2024-02-15T10:27:41;16.60;96.40
3348;DHT22;1687;49.540;8.574;2024-02-15T10:30:18;16.80;96.30
3348;DHT22;1687;49.540;8.574;2024-02-15T10:32:45;17.00;95.70
3348;DHT22;1687;49.540;8.574;2024-02-15T10:35:19;17.20;95.70
3348;DHT22;1687;49.540;8.574;2024-02-15T10:37:48;17.30;94.80
3348;DHT22;1687;49.540;8.574;2024-02-15T10:40:18;17.20;93.60
3348;DHT22;1687;49.540;8.574;2024-02-15T10:42:48;17.10;94.20
3348;DHT22;1687;49.540;8.574;2024-02-15T10:45:15;17.10;93.40
3348;DHT22;1687;49.540;8.574;2024-02-15T10:47:44;17.10;93.40
3348;DHT22;1687;49.540;8.574;2024-02-15T10:50:11;17.20;93.60
3348;DHT22;1687;49.540;8.574;2024-02-15T10:52:43;17.10;93.00
3348;DHT22;1687;49.540;8.574;2024-02-15T10:55:44;17.20;93.40
3348;DHT22;1687;49.540;8.574;2024-02-15T10:58:26;17.40;92.80
3348;DHT22;1687;49.540;8.574;2024-02-15T11:01:01;17.40;92.50
3348;DHT22;1687;49.540;8.574;2024-02-15T11:03:35;17.40;92.00
3348;DHT22;1687;49.540;8.574;2024-02-15T11:06:02;17.40;92.00
3348;DHT22;1687;49.540;8.574;2024-02-15T11:08:30;17.30;91.50
3348;DHT22;1687;49.540;8.574;2024-02-15T11:10:57;17.20;91.20
3348;DHT22;1687;49.540;8.574;2024-02-15T11:13:24;17.30;91.30
3348;DHT22;1687;49.540;8.574;2024-02-15T11:15:50;17.40;91.20
3348;DHT22;1687;49.540;8.574;2024-02-15T11:18:44;17.40;90.90
3348;DHT22;1687;49.540;8.574;2024-02-15T11:21:55;17.40;90.70
3348;DHT22;1687;49.540;8.574;2024-02-15T11:24:26;17.50;90.50
3348;DHT22;1687;49.540;8.574;2024-02-15T11:27:02;17.50;90.40
3348;DHT22;1687;49.540;8.574;2024-02-15T11:30:03;17.50;90.00
3348;DHT22;1687;49.540;8.574;2024-02-15T11:32:42;17.70;90.30
3348;DHT22;1687;49.540;8.574;2024-02-15T11:35:22;17.90;89.90
3348;DHT22;1687;49.540;8.574;2024-02-15T11:40:22;18.00;89.20
3348;DHT22;1687;49.540;8.574;2024-02-15T11:42:53;17.90;87.30
3348;DHT22;1687;49.540;8.574;2024-02-15T11:45:19;17.80;87.20
3348;DHT22;1687;49.540;8.574;2024-02-15T11:47:49;17.80;87.40
3348;DHT22;1687;49.540;8.574;2024-02-15T11:50:18;17.90;87.20
3348;DHT22;1687;49.540;8.574;2024-02-15T11:52:45;17.90;86.60
3348;DHT22;1687;49.540;8.574;2024-02-15T11:55:17;18.00;86.80
3348;DHT22;1687;49.540;8.574;2024-02-15T11:57:54;18.10;86.30
3348;DHT22;1687;49.540;8.574;2024-02-15T12:00:27;18.10;85.40
3348;DHT22;1687;49.540;8.574;2024-02-15T12:03:14;18.00;84.80
3348;DHT22;1687;49.540;8.574;2024-02-15T12:06:00;17.90;85.00
3348;DHT22;1687;49.540;8.574;2024-02-15T12:08:46;17.90;84.60
3348;DHT22;1687;49.540;8.574;2024-02-15T12:11:31;17.90;84.20
3348;DHT22;1687;49.540;8.574;2024-02-15T12:14:16;17.90;84.10
3348;DHT22;1687;49.540;8.574;2024-02-15T12:17:08;18.00;83.90
3348;DHT22;1687;49.540;8.574;2024-02-15T12:19:55;17.80;83.10
3348;DHT22;1687;49.540;8.574;2024-02-15T12:22:25;17.70;83.00
3348;DHT22;1687;49.540;8.574;2024-02-15T12:25:01;17.80;83.60
3348;DHT22;1687;49.540;8.574;2024-02-15T12:27:40;17.90;83.20
3348;DHT22;1687;49.540;8.574;2024-02-15T12:30:13;18.00;83.20
3348;DHT22;1687;49.540;8.574;2024-02-15T12:32:40;17.90;82.80
3348;DHT22;1687;49.540;8.574;2024-02-15T12:35:17;18.00;82.90
3348;DHT22;1687;49.540;8.574;2024-02-15T12:40:31;18.10;82.80
3348;DHT22;1687;49.540;8.574;2024-02-15T12:42:58;18.10;82.20
3348;DHT22;1687;49.540;8.574;2024-02-15T12:45:26;18.10;82.00
3348;DHT22;1687;49.540;8.574;2024-02-15T12:47:55;18.10;82.10
3348;DHT22;1687;49.540;8.574;2024-02-15T12:50:28;18.10;81.50
3348;DHT22;1687;49.540;8.574;2024-02-15T12:52:55;18.10;81.20
3348;DHT22;1687;49.540;8.574;2024-02-15T12:55:28;18.10;81.50
3348;DHT22;1687;49.540;8.574;2024-02-15T12:57:55;18.20;80.80
3348;DHT22;1687;49.540;8.574;2024-02-15T13:00:27;18.10;80.60
3348;DHT22;1687;49.540;8.574;2024-02-15T13:02:59;18.10;80.50
3348;DHT22;1687;49.540;8.574;2024-02-15T13:05:28;18.10;80.50
3348;DHT22;1687;49.540;8.574;2024-02-15T13:07:56;18.20;80.20
3348;DHT22;1687;49.540;8.574;2024-02-15T13:10:28;18.10;79.80
3348;DHT22;1687;49.540;8.574;2024-02-15T13:12:55;18.10;79.90
3348;DHT22;1687;49.540;8.574;2024-02-15T13:15:22;18.10;79.70
3348;DHT22;1687;49.540;8.574;2024-02-15T13:17:53;18.20;79.70
3348;DHT22;1687;49.540;8.574;2024-02-15T13:20:20;18.20;79.70
3348;DHT22;1687;49.540;8.574;2024-02-15T13:22:57;18.20;79.60
3348;DHT22;1687;49.540;8.574;2024-02-15T13:25:27;18.30;79.70
3348;DHT22;1687;49.540;8.574;2024-02-15T13:27:53;18.40;79.50
3348;DHT22;1687;49.540;8.574;2024-02-15T13:30:19;18.40;79.20
3348;DHT22;1687;49.540;8.574;2024-02-15T13:32:49;18.40;79.10
3348;DHT22;1687;49.540;8.574;2024-02-15T13:35:17;18.30;78.90
3348;DHT22;1687;49.540;8.574;2024-02-15T13:37:52;18.40;79.20
3348;DHT22;1687;49.540;8.574;2024-02-15T13:40:19;18.40;79.10
3348;DHT22;1687;49.540;8.574;2024-02-15T13:42:49;18.50;78.90
3348;DHT22;1687;49.540;8.574;2024-02-15T13:45:24;18.50;78.80
3348;DHT22;1687;49.540;8.574;2024-02-15T13:47:56;18.40;78.60
3348;DHT22;1687;49.540;8.574;2024-02-15T13:50:22;18.40;78.70
3348;DHT22;1687;49.540;8.574;2024-02-15T13:52:49;18.40;78.70
3348;DHT22;1687;49.540;8.574;2024-02-15T13:55:17;18.40;78.40
3348;DHT22;1687;49.540;8.574;2024-02-15T13:57:45;18.50;78.50
3348;DHT22;1687;49.540;8.574;2024-02-15T14:00:15;18.40;78.30
3348;DHT22;1687;49.540;8.574;2024-02-15T14:05:15;18.50;79.20
3348;DHT22;1687;49.540;8.574;2024-02-15T14:07:48;18.50;78.10
3348;DHT22;1687;49.540;8.574;2024-02-15T14:10:20;18.50;78.30
3348;DHT22;1687;49.540;8.574;2024-02-15T14:12:51;18.50;78.20
3348;DHT22;1687;49.540;8.574;2024-02-15T14:15:21;18.60;78.20
3348;DHT22;1687;49.540;8.574;2024-02-15T14:17:47;18.60;78.20
3348;DHT22;1687;49.540;8.574;2024-02-15T14:20:13;18.70;78.30
3348;DHT22;1687;49.540;8.574;2024-02-15T14:22:44;18.70;78.20
3348;DHT22;1687;49.540;8.574;2024-02-15T14:25:11;18.70;78.00
3348;DHT22;1687;49.540;8.574;2024-02-15T14:27:39;18.80;78.20
3348;DHT22;1687;49.540;8.574;2024-02-15T14:30:05;18.80;77.90
3348;DHT22;1687;49.540;8.574;2024-02-15T14:32:50;18.80;77.80
3348;DHT22;1687;49.540;8.574;2024-02-15T14:35:26;18.80;77.90
3348;DHT22;1687;49.540;8.574;2024-02-15T14:37:54;18.80;77.70
3348;DHT22;1687;49.540;8.574;2024-02-15T14:40:22;18.80;77.60
3348;DHT22;1687;49.540;8.574;2024-02-15T14:42:48;18.70;77.50
3348;DHT22;1687;49.540;8.574;2024-02-15T14:45:13;18.70;77.30
3348;DHT22;1687;49.540;8.574;2024-02-15T14:47:39;18.60;77.00
3348;DHT22;1687;49.540;8.574;2024-02-15T14:50:07;18.50;77.10
3348;DHT22;1687;49.540;8.574;2024-02-15T14:52:37;18.50;77.10
3348;DHT22;1687;49.540;8.574;2024-02-15T14:55:03;18.40;76.80
3348;DHT22;1687;49.540;8.574;2024-02-15T14:57:31;18.30;76.80
3348;DHT22;1687;49.540;8.574;2024-02-15T14:59:58;18.30;76.90
3348;DHT22;1687;49.540;8.574;2024-02-15T15:02:24;18.30;76.80
3348;DHT22;1687;49.540;8.574;2024-02-15T15:04:50;18.30;76.70
3348;DHT22;1687;49.540;8.574;2024-02-15T15:07:34;18.30;76.70
3348;DHT22;1687;49.540;8.574;2024-02-15T15:10:18;18.30;76.50
3348;DHT22;1687;49.540;8.574;2024-02-15T15:13:03;18.20;76.20
3348;DHT22;1687;49.540;8.574;2024-02-15T15:15:28;18.10;76.20
3348;DHT22;1687;49.540;8.574;2024-02-15T15:17:54;18.10;76.20
3348;DHT22;1687;49.540;8.574;2024-02-15T15:20:21;18.10;76.10
3348;DHT22;1687;49.540;8.574;2024-02-15T15:22:46;18.10;76.00
3348;DHT22;1687;49.540;8.574;2024-02-15T15:25:12;18.00;75.90
3348;DHT22;1687;49.540;8.574;2024-02-15T15:27:38;18.00;76.00
3348;DHT22;1687;49.540;8.574;2024-02-15T15:30:05;18.00;76.00
3348;DHT22;1687;49.540;8.574;2024-02-15T15:32:31;17.90;75.50
3348;DHT22;1687;49.540;8.574;2024-02-15T15:34:59;17.90;75.70
3348;DHT22;1687;49.540;8.574;2024-02-15T15:37:24;17.80;75.30
3348;DHT22;1687;49.540;8.574;2024-02-15T15:39:50;17.80;75.70
3348;DHT22;1687;49.540;8.574;2024-02-15T15:42:16;17.80;75.50
3348;DHT22;1687;49.540;8.574;2024-02-15T15:44:43;17.80;75.60
3348;DHT22;1687;49.540;8.574;2024-02-15T15:47:09;17.80;75.50
3348;DHT22;1687;49.540;8.574;2024-02-15T15:49:35;17.70;75.30
3348;DHT22;1687;49.540;8.574;2024-02-15T15:52:01;17.60;75.10
3348;DHT22;1687;49.540;8.574;2024-02-15T15:54:27;17.60;75.20
3348;DHT22;1687;49.540;8.574;2024-02-15T15:56:53;17.60;75.50
3348;DHT22;1687;49.540;8.574;2024-02-15T15:59:18;17.60;75.50
3348;DHT22;1687;49.540;8.574;2024-02-15T16:01:48;17.60;75.50
3348;DHT22;1687;49.540;8.574;2024-02-15T16:04:16;17.60;75.30
3348;DHT22;1687;49.540;8.574;2024-02-15T16:06:42;17.60;75.40
3348;DHT22;1687;49.540;8.574;2024-02-15T16:09:09;17.50;75.20
3348;DHT22;1687;49.540;8.574;2024-02-15T16:11:35;17.50;75.20
3348;DHT22;1687;49.540;8.574;2024-02-15T16:14:00;17.40;75.00
3348;DHT22;1687;49.540;8.574;2024-02-15T16:16:28;17.40;75.10
3348;DHT22;1687;49.540;8.574;2024-02-15T16:18:54;17.30;75.20
3348;DHT22;1687;49.540;8.574;2024-02-15T16:21:20;17.30;75.00
3348;DHT22;1687;49.540;8.574;2024-02-15T16:23:46;17.20;75.00